Terminal Aerodrome Forecast
Issued by NWS Cleveland, OH

Home | Current Version | Previous Version | Graphics & Text | Print | Product List | Glossary On
Versions: 1 2 3 4 5 6 7 8 9 10 11 12 13 14 15 16 17 18 19 20 21 22
000
FTUS41 KCLE 140300 AAA
TAFYNG
TAF AMD
KYNG 140326Z 1403/1424 VRB03KT P6SM SCT030
      TEMPO 1406/1410 BKN030
     FM141000 VRB03KT 3SM BR SCT030
     FM141400 15005KT P6SM BKN035
     FM141900 27003KT P6SM SCT035=

USA.gov is the U.S. government's official web portal to all federal, state and local government web resources and services.